sensor_id;sensor_type;location;lat;lon;timestamp;temperature;humidity
55369;DHT22;41247;49.736;8.752;2022-11-24T00:00:45;6.70;99.90
55369;DHT22;41247;49.736;8.752;2022-11-24T00:04:26;6.70;99.90
55369;DHT22;41247;49.736;8.752;2022-11-24T00:08:07;6.70;99.90
55369;DHT22;41247;49.736;8.752;2022-11-24T00:11:47;6.80;99.90
55369;DHT22;41247;49.736;8.752;2022-11-24T00:15:28;6.80;99.90
55369;DHT22;41247;49.736;8.752;2022-11-24T00:19:09;6.80;99.90
55369;DHT22;41247;49.736;8.752;2022-11-24T00:22:49;6.90;99.90
55369;DHT22;41247;49.736;8.752;2022-11-24T00:26:32;6.90;99.90
55369;DHT22;41247;49.736;8.752;2022-11-24T00:30:14;6.90;99.90
55369;DHT22;41247;49.736;8.752;2022-11-24T00:33:57;6.80;99.90
55369;DHT22;41247;49.736;8.752;2022-11-24T00:37:38;6.90;99.90
55369;DHT22;41247;49.736;8.752;2022-11-24T00:41:19;6.90;99.90
55369;DHT22;41247;49.736;8.752;2022-11-24T00:45:00;6.90;99.90
55369;DHT22;41247;49.736;8.752;2022-11-24T00:48:41;6.90;99.90
55369;DHT22;41247;49.736;8.752;2022-11-24T00:52:22;7.00;99.90
55369;DHT22;41247;49.736;8.752;2022-11-24T00:56:03;7.00;99.90
55369;DHT22;41247;49.736;8.752;2022-11-24T00:59:43;7.00;99.90
55369;DHT22;41247;49.736;8.752;2022-11-24T01:03:24;7.10;99.90
55369;DHT22;41247;49.736;8.752;2022-11-24T01:07:05;7.10;99.90
55369;DHT22;41247;49.736;8.752;2022-11-24T01:10:45;7.20;99.90
55369;DHT22;41247;49.736;8.752;2022-11-24T01:14:26;7.20;99.90
55369;DHT22;41247;49.736;8.752;2022-11-24T01:18:08;7.20;99.90
55369;DHT22;41247;49.736;8.752;2022-11-24T01:21:49;7.20;99.90
55369;DHT22;41247;49.736;8.752;2022-11-24T01:25:29;7.20;99.90
55369;DHT22;41247;49.736;8.752;2022-11-24T01:29:10;7.30;99.90
55369;DHT22;41247;49.736;8.752;2022-11-24T01:32:51;7.30;99.90
55369;DHT22;41247;49.736;8.752;2022-11-24T01:36:32;7.30;99.90
55369;DHT22;41247;49.736;8.752;2022-11-24T01:40:13;7.30;99.90
55369;DHT22;41247;49.736;8.752;2022-11-24T01:43:54;7.30;99.90
55369;DHT22;41247;49.736;8.752;2022-11-24T01:47:37;7.30;99.90
55369;DHT22;41247;49.736;8.752;2022-11-24T01:51:22;7.30;99.90
55369;DHT22;41247;49.736;8.752;2022-11-24T01:55:08;7.30;99.90
55369;DHT22;41247;49.736;8.752;2022-11-24T01:58:54;7.30;99.90
55369;DHT22;41247;49.736;8.752;2022-11-24T02:02:37;7.30;99.90
55369;DHT22;41247;49.736;8.752;2022-11-24T02:06:26;7.30;99.90
55369;DHT22;41247;49.736;8.752;2022-11-24T02:10:11;7.30;99.90
55369;DHT22;41247;49.736;8.752;2022-11-24T02:13:53;7.30;99.90
55369;DHT22;41247;49.736;8.752;2022-11-24T02:17:37;7.30;99.90
55369;DHT22;41247;49.736;8.752;2022-11-24T02:21:17;7.20;99.90
55369;DHT22;41247;49.736;8.752;2022-11-24T02:29:19;7.10;99.90
55369;DHT22;41247;49.736;8.752;2022-11-24T02:33:01;7.10;99.90
55369;DHT22;41247;49.736;8.752;2022-11-24T02:36:42;7.10;99.90
55369;DHT22;41247;49.736;8.752;2022-11-24T02:40:25;7.00;99.90
55369;DHT22;41247;49.736;8.752;2022-11-24T02:44:07;7.10;99.90
55369;DHT22;41247;49.736;8.752;2022-11-24T02:48:08;7.10;99.90
55369;DHT22;41247;49.736;8.752;2022-11-24T02:51:56;7.10;99.90
55369;DHT22;41247;49.736;8.752;2022-11-24T02:55:37;7.10;99.90
55369;DHT22;41247;49.736;8.752;2022-11-24T02:59:17;7.10;99.90
55369;DHT22;41247;49.736;8.752;2022-11-24T03:07:36;7.00;99.90
55369;DHT22;41247;49.736;8.752;2022-11-24T03:25:30;7.10;99.90
55369;DHT22;41247;49.736;8.752;2022-11-24T03:29:13;7.10;99.90
55369;DHT22;41247;49.736;8.752;2022-11-24T03:32:53;7.20;99.90
55369;DHT22;41247;49.736;8.752;2022-11-24T03:36:34;7.20;99.90
55369;DHT22;41247;49.736;8.752;2022-11-24T03:40:15;7.20;99.90
55369;DHT22;41247;49.736;8.752;2022-11-24T03:43:56;7.20;99.90
55369;DHT22;41247;49.736;8.752;2022-11-24T03:47:36;7.20;99.90
55369;DHT22;41247;49.736;8.752;2022-11-24T03:51:17;7.20;99.90
55369;DHT22;41247;49.736;8.752;2022-11-24T03:54:57;7.20;99.90
55369;DHT22;41247;49.736;8.752;2022-11-24T03:58:38;7.20;99.90
55369;DHT22;41247;49.736;8.752;2022-11-24T04:02:19;7.10;99.90
55369;DHT22;41247;49.736;8.752;2022-11-24T04:05:59;7.10;99.90
55369;DHT22;41247;49.736;8.752;2022-11-24T04:09:40;7.20;99.90
55369;DHT22;41247;49.736;8.752;2022-11-24T04:13:23;7.20;99.90
55369;DHT22;41247;49.736;8.752;2022-11-24T04:17:04;7.20;99.90
55369;DHT22;41247;49.736;8.752;2022-11-24T04:20:44;7.20;99.90
55369;DHT22;41247;49.736;8.752;2022-11-24T04:24:25;7.20;99.90
55369;DHT22;41247;49.736;8.752;2022-11-24T04:28:06;7.30;99.90
55369;DHT22;41247;49.736;8.752;2022-11-24T04:31:46;7.30;99.90
55369;DHT22;41247;49.736;8.752;2022-11-24T04:35:27;7.30;99.90
55369;DHT22;41247;49.736;8.752;2022-11-24T04:39:07;7.30;99.90
55369;DHT22;41247;49.736;8.752;2022-11-24T04:42:55;7.30;99.90
55369;DHT22;41247;49.736;8.752;2022-11-24T04:46:36;7.30;99.90
55369;DHT22;41247;49.736;8.752;2022-11-24T04:50:16;7.30;99.90
55369;DHT22;41247;49.736;8.752;2022-11-24T04:53:57;7.30;99.90
55369;DHT22;41247;49.736;8.752;2022-11-24T04:57:38;7.30;99.90
55369;DHT22;41247;49.736;8.752;2022-11-24T05:01:18;7.30;99.90
55369;DHT22;41247;49.736;8.752;2022-11-24T05:04:59;7.30;99.90
55369;DHT22;41247;49.736;8.752;2022-11-24T05:08:39;7.30;99.90
55369;DHT22;41247;49.736;8.752;2022-11-24T05:12:20;7.30;99.90
55369;DHT22;41247;49.736;8.752;2022-11-24T05:16:01;7.30;99.90
55369;DHT22;41247;49.736;8.752;2022-11-24T05:19:41;7.30;99.90
55369;DHT22;41247;49.736;8.752;2022-11-24T05:23:22;7.30;99.90
55369;DHT22;41247;49.736;8.752;2022-11-24T05:27:02;7.30;99.90
55369;DHT22;41247;49.736;8.752;2022-11-24T05:30:44;7.30;99.90
55369;DHT22;41247;49.736;8.752;2022-11-24T05:34:25;7.40;99.90
55369;DHT22;41247;49.736;8.752;2022-11-24T05:38:05;7.40;99.90
55369;DHT22;41247;49.736;8.752;2022-11-24T05:41:46;7.40;99.90
55369;DHT22;41247;49.736;8.752;2022-11-24T05:45:27;7.40;99.90
55369;DHT22;41247;49.736;8.752;2022-11-24T05:49:08;7.30;99.90
55369;DHT22;41247;49.736;8.752;2022-11-24T05:52:48;7.30;99.90
55369;DHT22;41247;49.736;8.752;2022-11-24T05:56:29;7.30;99.90
55369;DHT22;41247;49.736;8.752;2022-11-24T06:00:11;7.30;99.90
55369;DHT22;41247;49.736;8.752;2022-11-24T06:03:52;7.30;99.90
55369;DHT22;41247;49.736;8.752;2022-11-24T06:07:32;7.30;99.90
55369;DHT22;41247;49.736;8.752;2022-11-24T06:11:13;7.40;99.90
55369;DHT22;41247;49.736;8.752;2022-11-24T06:14:53;7.30;99.90
55369;DHT22;41247;49.736;8.752;2022-11-24T06:18:34;7.30;99.90
55369;DHT22;41247;49.736;8.752;2022-11-24T06:22:15;7.40;99.90
55369;DHT22;41247;49.736;8.752;2022-11-24T06:25:59;7.30;99.90
55369;DHT22;41247;49.736;8.752;2022-11-24T06:29:39;7.20;99.90
55369;DHT22;41247;49.736;8.752;2022-11-24T06:33:20;7.10;99.90
55369;DHT22;41247;49.736;8.752;2022-11-24T06:37:01;7.00;99.90
55369;DHT22;41247;49.736;8.752;2022-11-24T06:40:41;6.90;99.90
55369;DHT22;41247;49.736;8.752;2022-11-24T06:44:22;6.90;99.90
55369;DHT22;41247;49.736;8.752;2022-11-24T06:48:37;6.80;99.90
55369;DHT22;41247;49.736;8.752;2022-11-24T06:52:24;6.90;99.90
55369;DHT22;41247;49.736;8.752;2022-11-24T06:56:08;6.80;99.90
55369;DHT22;41247;49.736;8.752;2022-11-24T07:00:20;6.80;99.90
55369;DHT22;41247;49.736;8.752;2022-11-24T07:04:00;6.80;99.90
55369;DHT22;41247;49.736;8.752;2022-11-24T07:08:04;6.80;99.90
55369;DHT22;41247;49.736;8.752;2022-11-24T07:11:45;6.90;99.90
55369;DHT22;41247;49.736;8.752;2022-11-24T07:15:39;6.90;99.90
55369;DHT22;41247;49.736;8.752;2022-11-24T07:19:35;6.90;99.90
55369;DHT22;41247;49.736;8.752;2022-11-24T07:23:36;6.80;99.90
55369;DHT22;41247;49.736;8.752;2022-11-24T07:28:09;6.80;99.90
55369;DHT22;41247;49.736;8.752;2022-11-24T07:31:51;6.80;99.90
55369;DHT22;41247;49.736;8.752;2022-11-24T07:35:35;6.70;99.90
55369;DHT22;41247;49.736;8.752;2022-11-24T07:39:54;6.70;99.90
55369;DHT22;41247;49.736;8.752;2022-11-24T07:43:38;6.70;99.90
55369;DHT22;41247;49.736;8.752;2022-11-24T07:47:18;6.70;99.90
55369;DHT22;41247;49.736;8.752;2022-11-24T07:51:00;6.70;99.90
55369;DHT22;41247;49.736;8.752;2022-11-24T07:55:15;6.70;99.90
55369;DHT22;41247;49.736;8.752;2022-11-24T07:59:12;6.70;99.90
55369;DHT22;41247;49.736;8.752;2022-11-24T08:02:53;6.80;99.90
55369;DHT22;41247;49.736;8.752;2022-11-24T08:06:34;6.80;99.90
55369;DHT22;41247;49.736;8.752;2022-11-24T08:10:15;6.80;99.90
55369;DHT22;41247;49.736;8.752;2022-11-24T08:13:56;6.90;99.90
55369;DHT22;41247;49.736;8.752;2022-11-24T08:17:36;6.90;99.90
55369;DHT22;41247;49.736;8.752;2022-11-24T08:21:17;6.90;99.90
55369;DHT22;41247;49.736;8.752;2022-11-24T08:24:58;6.90;99.90
55369;DHT22;41247;49.736;8.752;2022-11-24T08:28:39;6.90;99.90
55369;DHT22;41247;49.736;8.752;2022-11-24T08:32:19;6.90;99.90
55369;DHT22;41247;49.736;8.752;2022-11-24T08:36:12;6.90;99.90
55369;DHT22;41247;49.736;8.752;2022-11-24T08:39:57;6.90;99.90
55369;DHT22;41247;49.736;8.752;2022-11-24T08:43:39;6.90;99.90
55369;DHT22;41247;49.736;8.752;2022-11-24T08:47:19;7.00;99.90
55369;DHT22;41247;49.736;8.752;2022-11-24T08:51:06;7.00;99.90
55369;DHT22;41247;49.736;8.752;2022-11-24T08:54:48;7.10;99.90
55369;DHT22;41247;49.736;8.752;2022-11-24T08:58:29;7.10;99.90
55369;DHT22;41247;49.736;8.752;2022-11-24T09:02:11;7.10;99.90
55369;DHT22;41247;49.736;8.752;2022-11-24T09:05:52;7.20;99.90
55369;DHT22;41247;49.736;8.752;2022-11-24T09:09:33;7.20;99.90
55369;DHT22;41247;49.736;8.752;2022-11-24T09:13:13;7.30;99.90
55369;DHT22;41247;49.736;8.752;2022-11-24T09:16:54;7.20;99.90
55369;DHT22;41247;49.736;8.752;2022-11-24T09:20:34;7.20;99.90
55369;DHT22;41247;49.736;8.752;2022-11-24T09:24:15;7.30;99.90
55369;DHT22;41247;49.736;8.752;2022-11-24T09:27:56;7.40;99.90
55369;DHT22;41247;49.736;8.752;2022-11-24T09:31:37;7.50;99.90
55369;DHT22;41247;49.736;8.752;2022-11-24T09:35:17;7.70;99.90
55369;DHT22;41247;49.736;8.752;2022-11-24T09:38:59;7.80;99.90
55369;DHT22;41247;49.736;8.752;2022-11-24T09:46:32;8.00;99.90
55369;DHT22;41247;49.736;8.752;2022-11-24T09:50:40;8.00;99.90
55369;DHT22;41247;49.736;8.752;2022-11-24T09:54:26;8.00;99.90
55369;DHT22;41247;49.736;8.752;2022-11-24T09:58:16;8.00;99.90
55369;DHT22;41247;49.736;8.752;2022-11-24T10:02:17;8.00;99.90
55369;DHT22;41247;49.736;8.752;2022-11-24T10:05:59;8.00;99.90
55369;DHT22;41247;49.736;8.752;2022-11-24T10:10:05;8.10;99.90
55369;DHT22;41247;49.736;8.752;2022-11-24T10:22:37;7.90;99.90
55369;DHT22;41247;49.736;8.752;2022-11-24T10:26:37;8.00;99.90
55369;DHT22;41247;49.736;8.752;2022-11-24T10:30:21;8.30;99.90
55369;DHT22;41247;49.736;8.752;2022-11-24T10:34:17;8.40;99.90
55369;DHT22;41247;49.736;8.752;2022-11-24T10:46:14;8.40;99.90
55369;DHT22;41247;49.736;8.752;2022-11-24T10:50:05;8.40;99.90
55369;DHT22;41247;49.736;8.752;2022-11-24T10:54:19;8.50;99.90
55369;DHT22;41247;49.736;8.752;2022-11-24T10:58:14;8.50;99.90
55369;DHT22;41247;49.736;8.752;2022-11-24T11:01:55;8.50;99.90
55369;DHT22;41247;49.736;8.752;2022-11-24T11:05:40;8.60;99.90
55369;DHT22;41247;49.736;8.752;2022-11-24T11:09:23;8.60;99.90
55369;DHT22;41247;49.736;8.752;2022-11-24T11:17:36;8.80;99.90
55369;DHT22;41247;49.736;8.752;2022-11-24T11:21:34;8.80;99.90
55369;DHT22;41247;49.736;8.752;2022-11-24T11:25:22;8.80;99.90
55369;DHT22;41247;49.736;8.752;2022-11-24T11:32:55;8.80;99.90
55369;DHT22;41247;49.736;8.752;2022-11-24T11:36:45;8.80;99.90
55369;DHT22;41247;49.736;8.752;2022-11-24T11:40:29;8.90;99.90
55369;DHT22;41247;49.736;8.752;2022-11-24T11:44:31;8.90;99.90
55369;DHT22;41247;49.736;8.752;2022-11-24T11:48:32;9.00;99.90
55369;DHT22;41247;49.736;8.752;2022-11-24T11:56:28;9.10;99.90
55369;DHT22;41247;49.736;8.752;2022-11-24T12:00:16;9.30;99.90
55369;DHT22;41247;49.736;8.752;2022-11-24T12:04:19;9.30;99.90
55369;DHT22;41247;49.736;8.752;2022-11-24T12:12:14;9.30;99.90
55369;DHT22;41247;49.736;8.752;2022-11-24T12:16:29;9.20;99.90
55369;DHT22;41247;49.736;8.752;2022-11-24T12:25:19;8.90;99.90
55369;DHT22;41247;49.736;8.752;2022-11-24T12:29:28;8.80;99.90
55369;DHT22;41247;49.736;8.752;2022-11-24T12:38:03;9.20;99.90
55369;DHT22;41247;49.736;8.752;2022-11-24T12:46:00;9.30;99.90
55369;DHT22;41247;49.736;8.752;2022-11-24T12:50:06;9.40;99.90
55369;DHT22;41247;49.736;8.752;2022-11-24T12:53:50;9.50;99.90
55369;DHT22;41247;49.736;8.752;2022-11-24T13:01:57;9.50;99.90
55369;DHT22;41247;49.736;8.752;2022-11-24T13:09:37;9.80;99.90
55369;DHT22;41247;49.736;8.752;2022-11-24T13:13:17;9.60;99.90
55369;DHT22;41247;49.736;8.752;2022-11-24T13:17:00;9.50;99.90
55369;DHT22;41247;49.736;8.752;2022-11-24T13:20:42;9.40;99.90
55369;DHT22;41247;49.736;8.752;2022-11-24T13:24:28;9.50;99.90
55369;DHT22;41247;49.736;8.752;2022-11-24T13:47:54;9.40;99.90
55369;DHT22;41247;49.736;8.752;2022-11-24T13:51:35;9.40;99.90
55369;DHT22;41247;49.736;8.752;2022-11-24T13:59:01;9.20;99.90
55369;DHT22;41247;49.736;8.752;2022-11-24T14:03:00;9.10;99.90
55369;DHT22;41247;49.736;8.752;2022-11-24T14:10:33;9.30;99.90
55369;DHT22;41247;49.736;8.752;2022-11-24T14:14:24;9.40;99.90
55369;DHT22;41247;49.736;8.752;2022-11-24T14:18:16;9.50;99.90
55369;DHT22;41247;49.736;8.752;2022-11-24T14:22:00;9.40;99.90
55369;DHT22;41247;49.736;8.752;2022-11-24T14:25:46;9.10;99.90
55369;DHT22;41247;49.736;8.752;2022-11-24T14:29:28;8.90;99.90
55369;DHT22;41247;49.736;8.752;2022-11-24T14:33:09;8.90;99.90
55369;DHT22;41247;49.736;8.752;2022-11-24T14:36:51;8.90;99.90
55369;DHT22;41247;49.736;8.752;2022-11-24T14:44:21;8.80;99.90
55369;DHT22;41247;49.736;8.752;2022-11-24T14:48:03;8.80;99.90
55369;DHT22;41247;49.736;8.752;2022-11-24T14:51:45;8.70;99.90
55369;DHT22;41247;49.736;8.752;2022-11-24T14:55:35;8.50;99.90
55369;DHT22;41247;49.736;8.752;2022-11-24T14:59:24;8.40;99.90
55369;DHT22;41247;49.736;8.752;2022-11-24T15:03:16;8.20;99.90
55369;DHT22;41247;49.736;8.752;2022-11-24T15:07:11;8.10;99.90
55369;DHT22;41247;49.736;8.752;2022-11-24T15:10:59;8.00;99.90
55369;DHT22;41247;49.736;8.752;2022-11-24T15:14:48;7.90;99.90
55369;DHT22;41247;49.736;8.752;2022-11-24T15:18:44;7.80;99.90
55369;DHT22;41247;49.736;8.752;2022-11-24T15:22:34;7.70;99.90
55369;DHT22;41247;49.736;8.752;2022-11-24T15:29:56;7.50;99.90
55369;DHT22;41247;49.736;8.752;2022-11-24T15:33:37;7.40;99.90
55369;DHT22;41247;49.736;8.752;2022-11-24T15:37:17;7.30;99.90
55369;DHT22;41247;49.736;8.752;2022-11-24T15:40:59;7.20;99.90
55369;DHT22;41247;49.736;8.752;2022-11-24T15:44:40;7.20;99.90
55369;DHT22;41247;49.736;8.752;2022-11-24T15:48:21;7.10;99.90
55369;DHT22;41247;49.736;8.752;2022-11-24T15:52:01;7.00;99.90
55369;DHT22;41247;49.736;8.752;2022-11-24T15:55:42;7.00;99.90
55369;DHT22;41247;49.736;8.752;2022-11-24T15:59:22;6.90;99.90
55369;DHT22;41247;49.736;8.752;2022-11-24T16:03:03;6.90;99.90
55369;DHT22;41247;49.736;8.752;2022-11-24T16:06:44;6.80;99.90
55369;DHT22;41247;49.736;8.752;2022-11-24T16:10:31;6.70;99.90
55369;DHT22;41247;49.736;8.752;2022-11-24T16:14:13;6.70;99.90
55369;DHT22;41247;49.736;8.752;2022-11-24T16:17:54;6.70;99.90
55369;DHT22;41247;49.736;8.752;2022-11-24T16:21:35;6.60;99.90
55369;DHT22;41247;49.736;8.752;2022-11-24T16:25:16;6.70;99.90
55369;DHT22;41247;49.736;8.752;2022-11-24T16:28:56;6.60;99.90
55369;DHT22;41247;49.736;8.752;2022-11-24T16:32:37;6.50;99.90
55369;DHT22;41247;49.736;8.752;2022-11-24T16:36:18;6.50;99.90
55369;DHT22;41247;49.736;8.752;2022-11-24T16:39:58;6.40;99.90
55369;DHT22;41247;49.736;8.752;2022-11-24T16:43:39;6.40;99.90
55369;DHT22;41247;49.736;8.752;2022-11-24T16:47:19;6.40;99.90
55369;DHT22;41247;49.736;8.752;2022-11-24T16:51:07;6.40;99.90
55369;DHT22;41247;49.736;8.752;2022-11-24T16:54:49;6.30;99.90
55369;DHT22;41247;49.736;8.752;2022-11-24T16:58:29;6.30;99.90
55369;DHT22;41247;49.736;8.752;2022-11-24T17:02:13;6.20;99.90
55369;DHT22;41247;49.736;8.752;2022-11-24T17:05:58;6.10;99.90
55369;DHT22;41247;49.736;8.752;2022-11-24T17:09:39;6.00;99.90
55369;DHT22;41247;49.736;8.752;2022-11-24T17:13:20;5.90;99.90
55369;DHT22;41247;49.736;8.752;2022-11-24T17:17:00;6.00;99.90
55369;DHT22;41247;49.736;8.752;2022-11-24T17:20:41;6.00;99.90
55369;DHT22;41247;49.736;8.752;2022-11-24T17:24:22;6.10;99.90
55369;DHT22;41247;49.736;8.752;2022-11-24T17:28:02;6.20;99.90
55369;DHT22;41247;49.736;8.752;2022-11-24T17:31:43;6.20;99.90
55369;DHT22;41247;49.736;8.752;2022-11-24T17:35:24;6.20;99.90
55369;DHT22;41247;49.736;8.752;2022-11-24T17:39:05;6.20;99.90
55369;DHT22;41247;49.736;8.752;2022-11-24T17:42:46;6.20;99.90
55369;DHT22;41247;49.736;8.752;2022-11-24T17:46:27;6.20;99.90
55369;DHT22;41247;49.736;8.752;2022-11-24T17:50:09;6.20;99.90
55369;DHT22;41247;49.736;8.752;2022-11-24T17:53:51;6.30;99.90
55369;DHT22;41247;49.736;8.752;2022-11-24T17:57:33;6.40;99.90
55369;DHT22;41247;49.736;8.752;2022-11-24T18:01:14;6.50;99.90
55369;DHT22;41247;49.736;8.752;2022-11-24T18:04:54;6.40;99.90
55369;DHT22;41247;49.736;8.752;2022-11-24T18:08:36;6.50;99.90
55369;DHT22;41247;49.736;8.752;2022-11-24T18:12:20;6.50;99.90
55369;DHT22;41247;49.736;8.752;2022-11-24T18:16:02;6.50;99.90
55369;DHT22;41247;49.736;8.752;2022-11-24T18:19:43;6.50;99.90
55369;DHT22;41247;49.736;8.752;2022-11-24T18:23:25;6.40;99.90
55369;DHT22;41247;49.736;8.752;2022-11-24T18:27:06;6.40;99.90
55369;DHT22;41247;49.736;8.752;2022-11-24T18:30:47;6.50;99.90
55369;DHT22;41247;49.736;8.752;2022-11-24T18:34:27;6.60;99.90
55369;DHT22;41247;49.736;8.752;2022-11-24T18:38:08;6.70;99.90
55369;DHT22;41247;49.736;8.752;2022-11-24T18:41:49;6.70;99.90
55369;DHT22;41247;49.736;8.752;2022-11-24T18:45:30;6.70;99.90
55369;DHT22;41247;49.736;8.752;2022-11-24T18:49:10;6.70;99.90
55369;DHT22;41247;49.736;8.752;2022-11-24T18:52:51;6.70;99.90
55369;DHT22;41247;49.736;8.752;2022-11-24T18:56:32;6.80;99.90
55369;DHT22;41247;49.736;8.752;2022-11-24T19:00:13;6.80;99.90
55369;DHT22;41247;49.736;8.752;2022-11-24T19:03:56;6.80;99.90
55369;DHT22;41247;49.736;8.752;2022-11-24T19:07:38;6.80;99.90
55369;DHT22;41247;49.736;8.752;2022-11-24T19:15:04;6.70;99.90
55369;DHT22;41247;49.736;8.752;2022-11-24T19:18:45;6.70;99.90
55369;DHT22;41247;49.736;8.752;2022-11-24T19:22:26;6.70;99.90
55369;DHT22;41247;49.736;8.752;2022-11-24T19:26:07;6.70;99.90
55369;DHT22;41247;49.736;8.752;2022-11-24T19:29:48;6.70;99.90
55369;DHT22;41247;49.736;8.752;2022-11-24T19:33:29;6.70;99.90
55369;DHT22;41247;49.736;8.752;2022-11-24T19:37:10;6.70;99.90
55369;DHT22;41247;49.736;8.752;2022-11-24T19:40:50;6.60;99.90
55369;DHT22;41247;49.736;8.752;2022-11-24T19:44:31;6.50;99.90
55369;DHT22;41247;49.736;8.752;2022-11-24T19:48:11;6.50;99.90
55369;DHT22;41247;49.736;8.752;2022-11-24T19:51:52;6.50;99.90
55369;DHT22;41247;49.736;8.752;2022-11-24T19:55:32;6.60;99.90
55369;DHT22;41247;49.736;8.752;2022-11-24T19:59:13;6.70;99.90
55369;DHT22;41247;49.736;8.752;2022-11-24T20:02:54;6.70;99.90
55369;DHT22;41247;49.736;8.752;2022-11-24T20:06:39;6.70;99.90
55369;DHT22;41247;49.736;8.752;2022-11-24T20:10:20;6.70;99.90
55369;DHT22;41247;49.736;8.752;2022-11-24T20:14:01;6.70;99.90
55369;DHT22;41247;49.736;8.752;2022-11-24T20:17:42;6.60;99.90
55369;DHT22;41247;49.736;8.752;2022-11-24T20:21:25;6.70;99.90
55369;DHT22;41247;49.736;8.752;2022-11-24T20:25:07;6.70;99.90
55369;DHT22;41247;49.736;8.752;2022-11-24T20:28:49;6.60;99.90
55369;DHT22;41247;49.736;8.752;2022-11-24T20:32:30;6.50;99.90
55369;DHT22;41247;49.736;8.752;2022-11-24T20:36:12;6.50;99.90
55369;DHT22;41247;49.736;8.752;2022-11-24T20:39:54;6.50;99.90
55369;DHT22;41247;49.736;8.752;2022-11-24T20:43:35;6.50;99.90
55369;DHT22;41247;49.736;8.752;2022-11-24T20:47:16;6.50;99.90
55369;DHT22;41247;49.736;8.752;2022-11-24T20:51:09;6.50;99.90
55369;DHT22;41247;49.736;8.752;2022-11-24T20:54:51;6.40;99.90
55369;DHT22;41247;49.736;8.752;2022-11-24T20:58:32;6.40;99.90
55369;DHT22;41247;49.736;8.752;2022-11-24T21:02:14;6.30;99.90
55369;DHT22;41247;49.736;8.752;2022-11-24T21:05:54;6.20;99.90
55369;DHT22;41247;49.736;8.752;2022-11-24T21:09:35;6.20;99.90
55369;DHT22;41247;49.736;8.752;2022-11-24T21:13:16;6.00;99.90
55369;DHT22;41247;49.736;8.752;2022-11-24T21:16:56;5.90;99.90
55369;DHT22;41247;49.736;8.752;2022-11-24T21:20:37;5.80;99.90
55369;DHT22;41247;49.736;8.752;2022-11-24T21:24:18;5.80;99.90
55369;DHT22;41247;49.736;8.752;2022-11-24T21:27:59;6.00;99.90
55369;DHT22;41247;49.736;8.752;2022-11-24T21:31:40;6.00;99.90
55369;DHT22;41247;49.736;8.752;2022-11-24T21:35:20;6.10;99.90
55369;DHT22;41247;49.736;8.752;2022-11-24T21:39:03;6.10;99.90
55369;DHT22;41247;49.736;8.752;2022-11-24T21:42:43;6.10;99.90
55369;DHT22;41247;49.736;8.752;2022-11-24T21:46:24;6.10;99.90
55369;DHT22;41247;49.736;8.752;2022-11-24T21:50:05;6.10;99.90
55369;DHT22;41247;49.736;8.752;2022-11-24T21:53:46;6.20;99.90
55369;DHT22;41247;49.736;8.752;2022-11-24T21:57:28;6.30;99.90
55369;DHT22;41247;49.736;8.752;2022-11-24T22:01:08;6.40;99.90
55369;DHT22;41247;49.736;8.752;2022-11-24T22:04:49;6.40;99.90
55369;DHT22;41247;49.736;8.752;2022-11-24T22:08:30;6.40;99.90
55369;DHT22;41247;49.736;8.752;2022-11-24T22:12:11;6.30;99.90
55369;DHT22;41247;49.736;8.752;2022-11-24T22:16:06;6.20;99.90
55369;DHT22;41247;49.736;8.752;2022-11-24T22:19:48;6.20;99.90
55369;DHT22;41247;49.736;8.752;2022-11-24T22:23:32;6.10;99.90
55369;DHT22;41247;49.736;8.752;2022-11-24T22:27:13;6.10;99.90
55369;DHT22;41247;49.736;8.752;2022-11-24T22:30:54;6.10;99.90
55369;DHT22;41247;49.736;8.752;2022-11-24T22:34:35;6.10;99.90
55369;DHT22;41247;49.736;8.752;2022-11-24T22:38:15;6.10;99.90
55369;DHT22;41247;49.736;8.752;2022-11-24T22:41:56;6.10;99.90
55369;DHT22;41247;49.736;8.752;2022-11-24T22:45:36;6.10;99.90
55369;DHT22;41247;49.736;8.752;2022-11-24T22:49:17;6.00;99.90
55369;DHT22;41247;49.736;8.752;2022-11-24T22:52:57;6.00;99.90
55369;DHT22;41247;49.736;8.752;2022-11-24T22:56:38;5.80;99.90
55369;DHT22;41247;49.736;8.752;2022-11-24T23:00:19;5.80;99.90
55369;DHT22;41247;49.736;8.752;2022-11-24T23:03:59;5.80;99.90
55369;DHT22;41247;49.736;8.752;2022-11-24T23:07:40;5.80;99.90
55369;DHT22;41247;49.736;8.752;2022-11-24T23:11:28;5.80;99.90
55369;DHT22;41247;49.736;8.752;2022-11-24T23:15:13;5.90;99.90
55369;DHT22;41247;49.736;8.752;2022-11-24T23:18:54;5.90;99.90
55369;DHT22;41247;49.736;8.752;2022-11-24T23:22:35;5.90;99.90
55369;DHT22;41247;49.736;8.752;2022-11-24T23:26:21;6.00;99.90
55369;DHT22;41247;49.736;8.752;2022-11-24T23:30:03;6.00;99.90
55369;DHT22;41247;49.736;8.752;2022-11-24T23:33:45;6.00;99.90
55369;DHT22;41247;49.736;8.752;2022-11-24T23:37:25;6.00;99.90
55369;DHT22;41247;49.736;8.752;2022-11-24T23:41:08;6.00;99.90
55369;DHT22;41247;49.736;8.752;2022-11-24T23:44:50;5.90;99.90
55369;DHT22;41247;49.736;8.752;2022-11-24T23:48:31;5.90;99.90
55369;DHT22;41247;49.736;8.752;2022-11-24T23:52:13;5.90;99.90
55369;DHT22;41247;49.736;8.752;2022-11-24T23:55:54;6.00;99.90
55369;DHT22;41247;49.736;8.752;2022-11-24T23:59:34;6.00;99.90
